sensor_id;sensor_type;location;lat;lon;timestamp;P1;durP1;ratioP1;P2;durP2;ratioP2
52898;SDS011;38763;53.096;6.062;2022-07-10T00:00:12;14.35;;;1.70;;
52898;SDS011;38763;53.096;6.062;2022-07-10T00:02:39;11.00;;;2.00;;
52898;SDS011;38763;53.096;6.062;2022-07-10T00:05:06;11.38;;;1.67;;
52898;SDS011;38763;53.096;6.062;2022-07-10T00:07:33;8.05;;;1.70;;
52898;SDS011;38763;53.096;6.062;2022-07-10T00:09:59;9.10;;;1.83;;
52898;SDS011;38763;53.096;6.062;2022-07-10T00:12:24;8.32;;;1.63;;
52898;SDS011;38763;53.096;6.062;2022-07-10T00:14:51;8.60;;;1.58;;
52898;SDS011;38763;53.096;6.062;2022-07-10T00:17:16;8.57;;;2.05;;
52898;SDS011;38763;53.096;6.062;2022-07-10T00:19:42;10.30;;;1.60;;
52898;SDS011;38763;53.096;6.062;2022-07-10T00:22:08;10.63;;;1.60;;
52898;SDS011;38763;53.096;6.062;2022-07-10T00:24:34;6.03;;;1.48;;
52898;SDS011;38763;53.096;6.062;2022-07-10T00:26:59;11.20;;;1.55;;
52898;SDS011;38763;53.096;6.062;2022-07-10T00:29:25;9.07;;;1.48;;
52898;SDS011;38763;53.096;6.062;2022-07-10T00:31:51;8.43;;;1.58;;
52898;SDS011;38763;53.096;6.062;2022-07-10T00:34:16;9.95;;;1.73;;
52898;SDS011;38763;53.096;6.062;2022-07-10T00:36:42;10.32;;;1.83;;
52898;SDS011;38763;53.096;6.062;2022-07-10T00:39:08;9.55;;;2.15;;
52898;SDS011;38763;53.096;6.062;2022-07-10T00:41:35;12.43;;;1.92;;
52898;SDS011;38763;53.096;6.062;2022-07-10T00:44:01;10.73;;;2.00;;
52898;SDS011;38763;53.096;6.062;2022-07-10T00:46:28;9.18;;;1.90;;
52898;SDS011;38763;53.096;6.062;2022-07-10T00:48:55;8.82;;;1.60;;
52898;SDS011;38763;53.096;6.062;2022-07-10T00:51:22;13.57;;;2.00;;
52898;SDS011;38763;53.096;6.062;2022-07-10T00:53:50;8.23;;;1.52;;
52898;SDS011;38763;53.096;6.062;2022-07-10T00:56:17;10.57;;;1.65;;
52898;SDS011;38763;53.096;6.062;2022-07-10T00:58:48;11.10;;;1.85;;
52898;SDS011;38763;53.096;6.062;2022-07-10T01:01:14;6.38;;;1.65;;
52898;SDS011;38763;53.096;6.062;2022-07-10T01:03:41;9.63;;;2.10;;
52898;SDS011;38763;53.096;6.062;2022-07-10T01:06:09;10.52;;;1.60;;
52898;SDS011;38763;53.096;6.062;2022-07-10T01:08:34;8.88;;;2.03;;
52898;SDS011;38763;53.096;6.062;2022-07-10T01:11:00;11.85;;;2.08;;
52898;SDS011;38763;53.096;6.062;2022-07-10T01:13:27;9.63;;;1.95;;
52898;SDS011;38763;53.096;6.062;2022-07-10T01:15:53;8.82;;;1.95;;
52898;SDS011;38763;53.096;6.062;2022-07-10T01:18:19;7.78;;;1.85;;
52898;SDS011;38763;53.096;6.062;2022-07-10T01:20:45;10.93;;;2.13;;
52898;SDS011;38763;53.096;6.062;2022-07-10T01:23:11;10.00;;;1.80;;
52898;SDS011;38763;53.096;6.062;2022-07-10T01:25:36;9.68;;;2.40;;
52898;SDS011;38763;53.096;6.062;2022-07-10T01:28:02;12.52;;;2.33;;
52898;SDS011;38763;53.096;6.062;2022-07-10T01:30:28;7.38;;;1.60;;
52898;SDS011;38763;53.096;6.062;2022-07-10T01:32:54;13.25;;;2.63;;
52898;SDS011;38763;53.096;6.062;2022-07-10T01:35:19;6.45;;;1.40;;
52898;SDS011;38763;53.096;6.062;2022-07-10T01:37:45;12.93;;;1.67;;
52898;SDS011;38763;53.096;6.062;2022-07-10T01:40:11;11.27;;;1.80;;
52898;SDS011;38763;53.096;6.062;2022-07-10T01:42:37;10.23;;;1.90;;
52898;SDS011;38763;53.096;6.062;2022-07-10T01:45:04;8.70;;;1.70;;
52898;SDS011;38763;53.096;6.062;2022-07-10T01:47:31;7.65;;;1.70;;
52898;SDS011;38763;53.096;6.062;2022-07-10T01:49:56;8.23;;;1.63;;
52898;SDS011;38763;53.096;6.062;2022-07-10T01:52:22;12.10;;;1.60;;
52898;SDS011;38763;53.096;6.062;2022-07-10T01:54:48;12.60;;;1.40;;
52898;SDS011;38763;53.096;6.062;2022-07-10T01:57:14;9.55;;;1.90;;
52898;SDS011;38763;53.096;6.062;2022-07-10T01:59:40;10.05;;;1.67;;
52898;SDS011;38763;53.096;6.062;2022-07-10T02:02:06;8.77;;;1.45;;
52898;SDS011;38763;53.096;6.062;2022-07-10T02:04:32;8.05;;;1.33;;
52898;SDS011;38763;53.096;6.062;2022-07-10T02:07:08;9.27;;;1.67;;
52898;SDS011;38763;53.096;6.062;2022-07-10T02:09:34;9.70;;;1.77;;
52898;SDS011;38763;53.096;6.062;2022-07-10T02:12:00;4.47;;;1.10;;
52898;SDS011;38763;53.096;6.062;2022-07-10T02:14:26;7.82;;;1.52;;
52898;SDS011;38763;53.096;6.062;2022-07-10T02:16:52;5.82;;;1.15;;
52898;SDS011;38763;53.096;6.062;2022-07-10T02:19:17;5.68;;;1.20;;
52898;SDS011;38763;53.096;6.062;2022-07-10T02:21:43;8.63;;;1.63;;
52898;SDS011;38763;53.096;6.062;2022-07-10T02:24:08;9.77;;;2.22;;
52898;SDS011;38763;53.096;6.062;2022-07-10T02:26:34;10.52;;;1.40;;
52898;SDS011;38763;53.096;6.062;2022-07-10T02:29:00;10.15;;;1.75;;
52898;SDS011;38763;53.096;6.062;2022-07-10T02:31:25;8.32;;;1.30;;
52898;SDS011;38763;53.096;6.062;2022-07-10T02:33:51;8.02;;;1.52;;
52898;SDS011;38763;53.096;6.062;2022-07-10T02:36:16;6.78;;;1.20;;
52898;SDS011;38763;53.096;6.062;2022-07-10T02:38:42;7.15;;;1.60;;
52898;SDS011;38763;53.096;6.062;2022-07-10T02:41:07;7.10;;;1.30;;
52898;SDS011;38763;53.096;6.062;2022-07-10T02:43:33;6.85;;;1.20;;
52898;SDS011;38763;53.096;6.062;2022-07-10T02:45:59;6.32;;;1.42;;
52898;SDS011;38763;53.096;6.062;2022-07-10T02:48:24;9.88;;;2.17;;
52898;SDS011;38763;53.096;6.062;2022-07-10T02:50:50;8.02;;;1.25;;
52898;SDS011;38763;53.096;6.062;2022-07-10T02:53:16;6.72;;;1.20;;
52898;SDS011;38763;53.096;6.062;2022-07-10T02:55:41;8.32;;;1.40;;
52898;SDS011;38763;53.096;6.062;2022-07-10T02:58:07;7.55;;;1.42;;
52898;SDS011;38763;53.096;6.062;2022-07-10T03:00:34;7.97;;;1.40;;
52898;SDS011;38763;53.096;6.062;2022-07-10T03:03:00;13.48;;;1.60;;
52898;SDS011;38763;53.096;6.062;2022-07-10T03:05:26;6.90;;;1.30;;
52898;SDS011;38763;53.096;6.062;2022-07-10T03:07:51;16.60;;;1.80;;
52898;SDS011;38763;53.096;6.062;2022-07-10T03:10:17;9.00;;;1.38;;
52898;SDS011;38763;53.096;6.062;2022-07-10T03:12:43;7.20;;;1.40;;
52898;SDS011;38763;53.096;6.062;2022-07-10T03:15:09;6.10;;;1.25;;
52898;SDS011;38763;53.096;6.062;2022-07-10T03:17:34;8.85;;;1.67;;
52898;SDS011;38763;53.096;6.062;2022-07-10T03:20:00;12.68;;;1.67;;
52898;SDS011;38763;53.096;6.062;2022-07-10T03:22:26;10.45;;;1.75;;
52898;SDS011;38763;53.096;6.062;2022-07-10T03:24:53;5.90;;;1.40;;
52898;SDS011;38763;53.096;6.062;2022-07-10T03:27:19;10.98;;;2.10;;
52898;SDS011;38763;53.096;6.062;2022-07-10T03:29:45;7.35;;;1.77;;
52898;SDS011;38763;53.096;6.062;2022-07-10T03:32:11;14.65;;;2.42;;
52898;SDS011;38763;53.096;6.062;2022-07-10T03:34:37;8.63;;;2.00;;
52898;SDS011;38763;53.096;6.062;2022-07-10T03:37:02;8.85;;;1.42;;
52898;SDS011;38763;53.096;6.062;2022-07-10T03:39:28;8.25;;;1.75;;
52898;SDS011;38763;53.096;6.062;2022-07-10T03:41:54;13.07;;;1.83;;
52898;SDS011;38763;53.096;6.062;2022-07-10T03:44:20;7.13;;;1.70;;
52898;SDS011;38763;53.096;6.062;2022-07-10T03:46:45;10.70;;;2.22;;
52898;SDS011;38763;53.096;6.062;2022-07-10T03:49:11;11.77;;;1.90;;
52898;SDS011;38763;53.096;6.062;2022-07-10T03:51:37;15.35;;;1.67;;
52898;SDS011;38763;53.096;6.062;2022-07-10T03:54:02;8.88;;;1.60;;
52898;SDS011;38763;53.096;6.062;2022-07-10T03:56:28;9.00;;;1.92;;
52898;SDS011;38763;53.096;6.062;2022-07-10T03:59:12;11.43;;;1.83;;
52898;SDS011;38763;53.096;6.062;2022-07-10T04:01:38;13.35;;;1.80;;
52898;SDS011;38763;53.096;6.062;2022-07-10T04:04:03;9.20;;;1.70;;
52898;SDS011;38763;53.096;6.062;2022-07-10T04:06:29;12.85;;;2.72;;
52898;SDS011;38763;53.096;6.062;2022-07-10T04:08:55;7.93;;;2.20;;
52898;SDS011;38763;53.096;6.062;2022-07-10T04:11:20;9.05;;;1.92;;
52898;SDS011;38763;53.096;6.062;2022-07-10T04:13:46;11.30;;;2.03;;
52898;SDS011;38763;53.096;6.062;2022-07-10T04:16:11;12.65;;;2.63;;
52898;SDS011;38763;53.096;6.062;2022-07-10T04:18:41;10.98;;;2.55;;
52898;SDS011;38763;53.096;6.062;2022-07-10T04:21:07;10.20;;;2.47;;
52898;SDS011;38763;53.096;6.062;2022-07-10T04:23:33;10.98;;;2.25;;
52898;SDS011;38763;53.096;6.062;2022-07-10T04:25:59;11.25;;;2.65;;
52898;SDS011;38763;53.096;6.062;2022-07-10T04:28:25;9.57;;;2.33;;
52898;SDS011;38763;53.096;6.062;2022-07-10T04:30:51;11.82;;;2.90;;
52898;SDS011;38763;53.096;6.062;2022-07-10T04:33:16;10.00;;;2.75;;
52898;SDS011;38763;53.096;6.062;2022-07-10T04:35:42;12.60;;;2.78;;
52898;SDS011;38763;53.096;6.062;2022-07-10T04:38:08;12.82;;;2.80;;
52898;SDS011;38763;53.096;6.062;2022-07-10T04:40:33;11.20;;;2.50;;
52898;SDS011;38763;53.096;6.062;2022-07-10T04:42:59;14.57;;;2.72;;
52898;SDS011;38763;53.096;6.062;2022-07-10T04:45:25;9.57;;;2.47;;
52898;SDS011;38763;53.096;6.062;2022-07-10T04:47:50;13.18;;;2.72;;
52898;SDS011;38763;53.096;6.062;2022-07-10T04:50:17;11.18;;;3.13;;
52898;SDS011;38763;53.096;6.062;2022-07-10T04:52:42;10.18;;;2.20;;
52898;SDS011;38763;53.096;6.062;2022-07-10T04:55:08;12.48;;;2.50;;
52898;SDS011;38763;53.096;6.062;2022-07-10T04:57:34;10.95;;;2.22;;
52898;SDS011;38763;53.096;6.062;2022-07-10T05:00:00;9.90;;;2.10;;
52898;SDS011;38763;53.096;6.062;2022-07-10T05:02:25;13.35;;;2.75;;
52898;SDS011;38763;53.096;6.062;2022-07-10T05:04:51;8.18;;;1.92;;
52898;SDS011;38763;53.096;6.062;2022-07-10T05:07:17;11.98;;;2.40;;
52898;SDS011;38763;53.096;6.062;2022-07-10T05:09:42;10.85;;;2.25;;
52898;SDS011;38763;53.096;6.062;2022-07-10T05:12:08;8.40;;;2.05;;
52898;SDS011;38763;53.096;6.062;2022-07-10T05:14:34;11.88;;;2.00;;
52898;SDS011;38763;53.096;6.062;2022-07-10T05:16:59;10.02;;;2.38;;
52898;SDS011;38763;53.096;6.062;2022-07-10T05:19:25;6.82;;;1.67;;
52898;SDS011;38763;53.096;6.062;2022-07-10T05:21:51;6.28;;;1.60;;
52898;SDS011;38763;53.096;6.062;2022-07-10T05:24:16;8.80;;;2.10;;
52898;SDS011;38763;53.096;6.062;2022-07-10T05:26:42;8.70;;;2.00;;
52898;SDS011;38763;53.096;6.062;2022-07-10T05:29:07;6.72;;;2.38;;
52898;SDS011;38763;53.096;6.062;2022-07-10T05:31:33;11.10;;;1.92;;
52898;SDS011;38763;53.096;6.062;2022-07-10T05:33:59;9.85;;;2.42;;
52898;SDS011;38763;53.096;6.062;2022-07-10T05:36:24;7.28;;;1.90;;
52898;SDS011;38763;53.096;6.062;2022-07-10T05:38:50;17.58;;;2.17;;
52898;SDS011;38763;53.096;6.062;2022-07-10T05:41:16;7.85;;;1.80;;
52898;SDS011;38763;53.096;6.062;2022-07-10T05:43:41;10.20;;;1.95;;
52898;SDS011;38763;53.096;6.062;2022-07-10T05:46:07;7.78;;;1.75;;
52898;SDS011;38763;53.096;6.062;2022-07-10T05:48:33;9.25;;;1.90;;
52898;SDS011;38763;53.096;6.062;2022-07-10T05:50:58;10.40;;;2.53;;
52898;SDS011;38763;53.096;6.062;2022-07-10T05:53:24;12.05;;;2.00;;
52898;SDS011;38763;53.096;6.062;2022-07-10T05:55:49;11.18;;;2.50;;
52898;SDS011;38763;53.096;6.062;2022-07-10T05:58:15;7.03;;;2.10;;
52898;SDS011;38763;53.096;6.062;2022-07-10T06:00:41;11.50;;;2.45;;
52898;SDS011;38763;53.096;6.062;2022-07-10T06:03:10;8.90;;;2.20;;
52898;SDS011;38763;53.096;6.062;2022-07-10T06:05:37;12.18;;;2.22;;
52898;SDS011;38763;53.096;6.062;2022-07-10T06:08:03;6.35;;;2.13;;
52898;SDS011;38763;53.096;6.062;2022-07-10T06:10:29;9.48;;;2.30;;
52898;SDS011;38763;53.096;6.062;2022-07-10T06:12:54;11.88;;;2.80;;
52898;SDS011;38763;53.096;6.062;2022-07-10T06:15:20;7.07;;;2.00;;
52898;SDS011;38763;53.096;6.062;2022-07-10T06:17:45;9.90;;;2.00;;
52898;SDS011;38763;53.096;6.062;2022-07-10T06:20:11;11.18;;;2.45;;
52898;SDS011;38763;53.096;6.062;2022-07-10T06:22:37;9.57;;;2.08;;
52898;SDS011;38763;53.096;6.062;2022-07-10T06:25:05;12.20;;;2.15;;
52898;SDS011;38763;53.096;6.062;2022-07-10T06:27:32;7.88;;;2.00;;
52898;SDS011;38763;53.096;6.062;2022-07-10T06:29:58;8.27;;;1.85;;
52898;SDS011;38763;53.096;6.062;2022-07-10T06:32:24;10.82;;;2.08;;
52898;SDS011;38763;53.096;6.062;2022-07-10T06:34:51;7.78;;;1.58;;
52898;SDS011;38763;53.096;6.062;2022-07-10T06:37:18;5.35;;;1.83;;
52898;SDS011;38763;53.096;6.062;2022-07-10T06:39:44;6.18;;;1.33;;
52898;SDS011;38763;53.096;6.062;2022-07-10T06:42:11;6.25;;;1.23;;
52898;SDS011;38763;53.096;6.062;2022-07-10T06:44:37;6.28;;;1.40;;
52898;SDS011;38763;53.096;6.062;2022-07-10T06:47:03;8.88;;;1.80;;
52898;SDS011;38763;53.096;6.062;2022-07-10T06:49:48;7.22;;;1.70;;
52898;SDS011;38763;53.096;6.062;2022-07-10T06:52:14;7.85;;;1.65;;
52898;SDS011;38763;53.096;6.062;2022-07-10T06:54:40;3.80;;;1.40;;
52898;SDS011;38763;53.096;6.062;2022-07-10T06:57:06;6.15;;;1.30;;
52898;SDS011;38763;53.096;6.062;2022-07-10T06:59:32;6.80;;;1.60;;
52898;SDS011;38763;53.096;6.062;2022-07-10T07:01:58;6.00;;;1.30;;
52898;SDS011;38763;53.096;6.062;2022-07-10T07:04:24;5.03;;;1.50;;
52898;SDS011;38763;53.096;6.062;2022-07-10T07:06:50;6.40;;;1.30;;
52898;SDS011;38763;53.096;6.062;2022-07-10T07:09:15;7.28;;;1.40;;
52898;SDS011;38763;53.096;6.062;2022-07-10T07:11:41;5.43;;;1.42;;
52898;SDS011;38763;53.096;6.062;2022-07-10T07:14:06;8.32;;;1.52;;
52898;SDS011;38763;53.096;6.062;2022-07-10T07:16:32;6.93;;;1.50;;
52898;SDS011;38763;53.096;6.062;2022-07-10T07:19:08;5.03;;;1.40;;
52898;SDS011;38763;53.096;6.062;2022-07-10T07:21:42;6.32;;;1.20;;
52898;SDS011;38763;53.096;6.062;2022-07-10T07:24:27;7.50;;;1.48;;
52898;SDS011;38763;53.096;6.062;2022-07-10T07:26:53;5.35;;;1.40;;
52898;SDS011;38763;53.096;6.062;2022-07-10T07:29:18;4.30;;;1.20;;
52898;SDS011;38763;53.096;6.062;2022-07-10T07:31:44;4.32;;;1.35;;
52898;SDS011;38763;53.096;6.062;2022-07-10T07:34:10;4.97;;;1.40;;
52898;SDS011;38763;53.096;6.062;2022-07-10T07:36:36;3.88;;;1.40;;
52898;SDS011;38763;53.096;6.062;2022-07-10T07:39:02;5.72;;;1.65;;
52898;SDS011;38763;53.096;6.062;2022-07-10T07:41:28;4.50;;;1.50;;
52898;SDS011;38763;53.096;6.062;2022-07-10T07:43:54;6.20;;;1.35;;
52898;SDS011;38763;53.096;6.062;2022-07-10T07:46:19;7.18;;;1.42;;
52898;SDS011;38763;53.096;6.062;2022-07-10T07:48:46;5.75;;;1.73;;
52898;SDS011;38763;53.096;6.062;2022-07-10T07:51:12;5.15;;;1.35;;
52898;SDS011;38763;53.096;6.062;2022-07-10T07:53:38;5.53;;;1.58;;
52898;SDS011;38763;53.096;6.062;2022-07-10T07:56:04;7.30;;;1.92;;
52898;SDS011;38763;53.096;6.062;2022-07-10T07:58:30;6.53;;;1.50;;
52898;SDS011;38763;53.096;6.062;2022-07-10T08:00:56;8.07;;;2.00;;
52898;SDS011;38763;53.096;6.062;2022-07-10T08:03:23;7.20;;;1.60;;
52898;SDS011;38763;53.096;6.062;2022-07-10T08:05:49;5.72;;;1.75;;
52898;SDS011;38763;53.096;6.062;2022-07-10T08:08:15;9.32;;;2.10;;
52898;SDS011;38763;53.096;6.062;2022-07-10T08:10:40;6.05;;;1.77;;
52898;SDS011;38763;53.096;6.062;2022-07-10T08:13:06;6.20;;;1.63;;
52898;SDS011;38763;53.096;6.062;2022-07-10T08:15:32;4.85;;;1.65;;
52898;SDS011;38763;53.096;6.062;2022-07-10T08:17:59;6.28;;;1.63;;
52898;SDS011;38763;53.096;6.062;2022-07-10T08:20:26;6.15;;;1.92;;
52898;SDS011;38763;53.096;6.062;2022-07-10T08:22:52;8.70;;;1.73;;
52898;SDS011;38763;53.096;6.062;2022-07-10T08:25:19;6.82;;;1.38;;
52898;SDS011;38763;53.096;6.062;2022-07-10T08:27:45;5.53;;;1.50;;
52898;SDS011;38763;53.096;6.062;2022-07-10T08:30:11;7.22;;;1.80;;
52898;SDS011;38763;53.096;6.062;2022-07-10T08:32:37;4.68;;;1.50;;
52898;SDS011;38763;53.096;6.062;2022-07-10T08:35:04;6.65;;;1.70;;
52898;SDS011;38763;53.096;6.062;2022-07-10T08:37:40;9.23;;;1.90;;
52898;SDS011;38763;53.096;6.062;2022-07-10T08:40:10;6.45;;;1.63;;
52898;SDS011;38763;53.096;6.062;2022-07-10T08:42:37;5.35;;;1.60;;
52898;SDS011;38763;53.096;6.062;2022-07-10T08:45:03;4.00;;;1.30;;
52898;SDS011;38763;53.096;6.062;2022-07-10T08:47:29;4.53;;;1.73;;
52898;SDS011;38763;53.096;6.062;2022-07-10T08:49:58;6.65;;;1.80;;
52898;SDS011;38763;53.096;6.062;2022-07-10T08:52:43;7.40;;;1.90;;
52898;SDS011;38763;53.096;6.062;2022-07-10T08:55:19;6.68;;;1.70;;
52898;SDS011;38763;53.096;6.062;2022-07-10T08:57:47;6.25;;;1.92;;
52898;SDS011;38763;53.096;6.062;2022-07-10T09:00:15;8.63;;;1.80;;
52898;SDS011;38763;53.096;6.062;2022-07-10T09:02:41;6.10;;;1.70;;
52898;SDS011;38763;53.096;6.062;2022-07-10T09:05:07;6.93;;;1.40;;
52898;SDS011;38763;53.096;6.062;2022-07-10T09:07:36;5.68;;;1.60;;
52898;SDS011;38763;53.096;6.062;2022-07-10T09:10:06;5.97;;;1.67;;
52898;SDS011;38763;53.096;6.062;2022-07-10T09:12:50;5.35;;;1.30;;
52898;SDS011;38763;53.096;6.062;2022-07-10T09:15:26;7.10;;;1.48;;
52898;SDS011;38763;53.096;6.062;2022-07-10T09:23:18;6.47;;;1.58;;
52898;SDS011;38763;53.096;6.062;2022-07-10T09:25:48;6.32;;;1.50;;
52898;SDS011;38763;53.096;6.062;2022-07-10T09:28:21;4.88;;;1.70;;
52898;SDS011;38763;53.096;6.062;2022-07-10T09:30:49;7.70;;;2.00;;
52898;SDS011;38763;53.096;6.062;2022-07-10T09:41:12;9.73;;;1.80;;
52898;SDS011;38763;53.096;6.062;2022-07-10T09:43:46;10.25;;;1.70;;
52898;SDS011;38763;53.096;6.062;2022-07-10T09:46:12;5.97;;;1.77;;
52898;SDS011;38763;53.096;6.062;2022-07-10T09:48:39;5.68;;;1.50;;
52898;SDS011;38763;53.096;6.062;2022-07-10T09:51:06;7.95;;;1.80;;
52898;SDS011;38763;53.096;6.062;2022-07-10T09:53:42;7.50;;;1.88;;
52898;SDS011;38763;53.096;6.062;2022-07-10T09:56:10;10.15;;;1.90;;
52898;SDS011;38763;53.096;6.062;2022-07-10T09:58:36;7.57;;;2.10;;
52898;SDS011;38763;53.096;6.062;2022-07-10T10:01:04;5.75;;;1.80;;
52898;SDS011;38763;53.096;6.062;2022-07-10T10:03:34;5.72;;;1.38;;
52898;SDS011;38763;53.096;6.062;2022-07-10T10:06:02;6.15;;;2.20;;
52898;SDS011;38763;53.096;6.062;2022-07-10T10:11:33;8.75;;;1.65;;
52898;SDS011;38763;53.096;6.062;2022-07-10T10:14:02;9.18;;;1.55;;
52898;SDS011;38763;53.096;6.062;2022-07-10T10:16:28;4.22;;;1.65;;
52898;SDS011;38763;53.096;6.062;2022-07-10T10:18:55;5.47;;;1.50;;
52898;SDS011;38763;53.096;6.062;2022-07-10T10:21:39;8.70;;;1.77;;
52898;SDS011;38763;53.096;6.062;2022-07-10T10:24:05;6.70;;;1.70;;
52898;SDS011;38763;53.096;6.062;2022-07-10T10:26:32;3.97;;;1.23;;
52898;SDS011;38763;53.096;6.062;2022-07-10T10:28:59;5.18;;;1.75;;
52898;SDS011;38763;53.096;6.062;2022-07-10T10:31:28;7.03;;;2.10;;
52898;SDS011;38763;53.096;6.062;2022-07-10T10:33:54;4.47;;;1.40;;
52898;SDS011;38763;53.096;6.062;2022-07-10T10:39:10;5.80;;;1.65;;
52898;SDS011;38763;53.096;6.062;2022-07-10T10:41:42;6.35;;;1.67;;
52898;SDS011;38763;53.096;6.062;2022-07-10T10:49:18;9.57;;;1.88;;
52898;SDS011;38763;53.096;6.062;2022-07-10T10:52:30;5.22;;;1.63;;
52898;SDS011;38763;53.096;6.062;2022-07-10T10:59:57;12.88;;;1.90;;
52898;SDS011;38763;53.096;6.062;2022-07-10T11:04:51;5.07;;;1.58;;
52898;SDS011;38763;53.096;6.062;2022-07-10T11:18:05;10.23;;;1.85;;
52898;SDS011;38763;53.096;6.062;2022-07-10T11:20:35;8.30;;;1.90;;
52898;SDS011;38763;53.096;6.062;2022-07-10T11:25:51;5.38;;;1.48;;
52898;SDS011;38763;53.096;6.062;2022-07-10T11:31:24;6.80;;;1.60;;
52898;SDS011;38763;53.096;6.062;2022-07-10T11:33:51;5.10;;;1.30;;
52898;SDS011;38763;53.096;6.062;2022-07-10T11:36:21;5.30;;;1.20;;
52898;SDS011;38763;53.096;6.062;2022-07-10T11:38:57;6.57;;;1.90;;
52898;SDS011;38763;53.096;6.062;2022-07-10T11:41:24;4.25;;;1.42;;
52898;SDS011;38763;53.096;6.062;2022-07-10T11:46:17;5.13;;;1.92;;
52898;SDS011;38763;53.096;6.062;2022-07-10T11:48:44;7.25;;;1.60;;
52898;SDS011;38763;53.096;6.062;2022-07-10T11:51:23;4.75;;;1.38;;
52898;SDS011;38763;53.096;6.062;2022-07-10T11:53:53;7.03;;;1.30;;
52898;SDS011;38763;53.096;6.062;2022-07-10T11:56:19;5.97;;;1.50;;
52898;SDS011;38763;53.096;6.062;2022-07-10T12:01:21;5.90;;;1.42;;
52898;SDS011;38763;53.096;6.062;2022-07-10T12:03:56;7.07;;;1.38;;
52898;SDS011;38763;53.096;6.062;2022-07-10T12:06:24;6.60;;;1.48;;
52898;SDS011;38763;53.096;6.062;2022-07-10T12:08:50;4.05;;;1.30;;
52898;SDS011;38763;53.096;6.062;2022-07-10T12:11:17;6.60;;;1.52;;
52898;SDS011;38763;53.096;6.062;2022-07-10T12:13:44;8.43;;;1.60;;
52898;SDS011;38763;53.096;6.062;2022-07-10T12:16:10;4.90;;;1.30;;
52898;SDS011;38763;53.096;6.062;2022-07-10T12:18:36;5.40;;;1.25;;
52898;SDS011;38763;53.096;6.062;2022-07-10T12:21:03;4.15;;;1.15;;
52898;SDS011;38763;53.096;6.062;2022-07-10T12:23:29;3.75;;;1.30;;
52898;SDS011;38763;53.096;6.062;2022-07-10T12:25:55;5.22;;;1.48;;
52898;SDS011;38763;53.096;6.062;2022-07-10T12:28:21;8.43;;;1.45;;
52898;SDS011;38763;53.096;6.062;2022-07-10T12:30:47;6.28;;;1.38;;
52898;SDS011;38763;53.096;6.062;2022-07-10T12:33:20;4.82;;;1.55;;
52898;SDS011;38763;53.096;6.062;2022-07-10T12:35:54;4.85;;;1.20;;
52898;SDS011;38763;53.096;6.062;2022-07-10T12:41:08;4.18;;;1.30;;
52898;SDS011;38763;53.096;6.062;2022-07-10T12:43:35;5.90;;;1.30;;
52898;SDS011;38763;53.096;6.062;2022-07-10T12:46:09;9.35;;;1.20;;
52898;SDS011;38763;53.096;6.062;2022-07-10T12:48:59;5.38;;;1.23;;
52898;SDS011;38763;53.096;6.062;2022-07-10T12:51:32;3.83;;;1.15;;
52898;SDS011;38763;53.096;6.062;2022-07-10T12:54:00;3.83;;;1.27;;
52898;SDS011;38763;53.096;6.062;2022-07-10T12:56:29;3.08;;;1.10;;
52898;SDS011;38763;53.096;6.062;2022-07-10T12:59:03;5.82;;;1.20;;
52898;SDS011;38763;53.096;6.062;2022-07-10T13:01:43;6.03;;;1.40;;
52898;SDS011;38763;53.096;6.062;2022-07-10T13:04:09;3.53;;;1.20;;
52898;SDS011;38763;53.096;6.062;2022-07-10T13:06:36;4.60;;;1.27;;
52898;SDS011;38763;53.096;6.062;2022-07-10T13:09:03;5.63;;;1.13;;
52898;SDS011;38763;53.096;6.062;2022-07-10T13:11:43;8.43;;;1.52;;
52898;SDS011;38763;53.096;6.062;2022-07-10T13:14:09;5.07;;;1.25;;
52898;SDS011;38763;53.096;6.062;2022-07-10T13:16:34;5.18;;;1.35;;
52898;SDS011;38763;53.096;6.062;2022-07-10T13:19:00;4.97;;;1.50;;
52898;SDS011;38763;53.096;6.062;2022-07-10T13:21:26;6.20;;;1.20;;
52898;SDS011;38763;53.096;6.062;2022-07-10T13:23:51;4.57;;;1.40;;
52898;SDS011;38763;53.096;6.062;2022-07-10T13:26:17;6.07;;;1.52;;
52898;SDS011;38763;53.096;6.062;2022-07-10T13:28:43;2.83;;;1.10;;
52898;SDS011;38763;53.096;6.062;2022-07-10T13:31:08;6.85;;;2.05;;
52898;SDS011;38763;53.096;6.062;2022-07-10T13:33:34;5.63;;;1.25;;
52898;SDS011;38763;53.096;6.062;2022-07-10T13:36:00;5.70;;;1.27;;
52898;SDS011;38763;53.096;6.062;2022-07-10T13:38:27;3.22;;;1.15;;
52898;SDS011;38763;53.096;6.062;2022-07-10T13:40:53;3.78;;;1.10;;
52898;SDS011;38763;53.096;6.062;2022-07-10T13:43:18;5.93;;;1.30;;
52898;SDS011;38763;53.096;6.062;2022-07-10T13:48:18;3.20;;;1.05;;
52898;SDS011;38763;53.096;6.062;2022-07-10T13:50:44;5.60;;;1.30;;
52898;SDS011;38763;53.096;6.062;2022-07-10T13:53:14;2.92;;;1.20;;
52898;SDS011;38763;53.096;6.062;2022-07-10T13:55:41;4.57;;;1.33;;
52898;SDS011;38763;53.096;6.062;2022-07-10T13:58:07;2.88;;;1.02;;
52898;SDS011;38763;53.096;6.062;2022-07-10T14:00:34;4.75;;;1.17;;
52898;SDS011;38763;53.096;6.062;2022-07-10T14:03:00;2.42;;;0.98;;
52898;SDS011;38763;53.096;6.062;2022-07-10T14:05:26;4.10;;;1.20;;
52898;SDS011;38763;53.096;6.062;2022-07-10T14:07:52;3.53;;;1.10;;
52898;SDS011;38763;53.096;6.062;2022-07-10T14:10:18;4.60;;;1.38;;
52898;SDS011;38763;53.096;6.062;2022-07-10T14:12:44;5.05;;;1.20;;
52898;SDS011;38763;53.096;6.062;2022-07-10T14:15:09;6.00;;;1.30;;
52898;SDS011;38763;53.096;6.062;2022-07-10T14:17:35;3.95;;;1.23;;
52898;SDS011;38763;53.096;6.062;2022-07-10T14:20:01;5.13;;;1.27;;
52898;SDS011;38763;53.096;6.062;2022-07-10T14:22:27;7.10;;;1.60;;
52898;SDS011;38763;53.096;6.062;2022-07-10T14:24:53;3.17;;;1.08;;
52898;SDS011;38763;53.096;6.062;2022-07-10T14:27:21;3.75;;;1.20;;
52898;SDS011;38763;53.096;6.062;2022-07-10T14:29:48;3.03;;;1.23;;
52898;SDS011;38763;53.096;6.062;2022-07-10T14:32:14;7.10;;;1.10;;
52898;SDS011;38763;53.096;6.062;2022-07-10T14:34:39;4.45;;;1.38;;
52898;SDS011;38763;53.096;6.062;2022-07-10T14:37:05;4.63;;;1.50;;
52898;SDS011;38763;53.096;6.062;2022-07-10T14:39:30;4.15;;;1.52;;
52898;SDS011;38763;53.096;6.062;2022-07-10T14:41:56;4.63;;;1.38;;
52898;SDS011;38763;53.096;6.062;2022-07-10T14:44:22;5.63;;;1.30;;
52898;SDS011;38763;53.096;6.062;2022-07-10T14:46:47;4.07;;;1.67;;
52898;SDS011;38763;53.096;6.062;2022-07-10T14:49:13;5.93;;;1.50;;
52898;SDS011;38763;53.096;6.062;2022-07-10T14:51:39;5.07;;;1.52;;
52898;SDS011;38763;53.096;6.062;2022-07-10T14:54:04;6.22;;;1.60;;
52898;SDS011;38763;53.096;6.062;2022-07-10T14:56:30;4.13;;;1.33;;
52898;SDS011;38763;53.096;6.062;2022-07-10T14:58:56;2.28;;;1.30;;
52898;SDS011;38763;53.096;6.062;2022-07-10T15:01:22;5.38;;;1.45;;
52898;SDS011;38763;53.096;6.062;2022-07-10T15:03:47;6.75;;;1.50;;
52898;SDS011;38763;53.096;6.062;2022-07-10T15:06:13;7.22;;;1.50;;
52898;SDS011;38763;53.096;6.062;2022-07-10T15:08:38;5.78;;;1.70;;
52898;SDS011;38763;53.096;6.062;2022-07-10T15:11:04;5.93;;;1.80;;
52898;SDS011;38763;53.096;6.062;2022-07-10T15:13:32;4.10;;;1.70;;
52898;SDS011;38763;53.096;6.062;2022-07-10T15:15:57;6.05;;;1.83;;
52898;SDS011;38763;53.096;6.062;2022-07-10T15:18:24;6.40;;;1.95;;
52898;SDS011;38763;53.096;6.062;2022-07-10T15:20:49;5.22;;;1.67;;
52898;SDS011;38763;53.096;6.062;2022-07-10T15:23:15;6.07;;;1.95;;
52898;SDS011;38763;53.096;6.062;2022-07-10T15:25:41;5.97;;;1.70;;
52898;SDS011;38763;53.096;6.062;2022-07-10T15:28:07;7.95;;;2.00;;
52898;SDS011;38763;53.096;6.062;2022-07-10T15:30:34;5.18;;;1.80;;
52898;SDS011;38763;53.096;6.062;2022-07-10T15:33:01;7.53;;;1.88;;
52898;SDS011;38763;53.096;6.062;2022-07-10T15:35:28;4.25;;;1.88;;
52898;SDS011;38763;53.096;6.062;2022-07-10T15:37:54;7.00;;;1.95;;
52898;SDS011;38763;53.096;6.062;2022-07-10T15:40:19;9.35;;;2.15;;
52898;SDS011;38763;53.096;6.062;2022-07-10T15:42:45;7.88;;;1.95;;